createdAt,value
2017-03-26T00:00:03.286Z,5.5
2017-03-26T00:01:05.995Z,5.4
2017-03-26T00:02:08.595Z,5.5
2017-03-26T00:03:10.944Z,5.5
2017-03-26T00:04:13.787Z,5.5
2017-03-26T00:05:16.130Z,5.5
2017-03-26T00:06:18.877Z,5.4
2017-03-26T00:07:21.981Z,5.4
2017-03-26T00:09:26.736Z,5.4
2017-03-26T00:10:29.079Z,5.3
2017-03-26T00:11:31.927Z,5.3
2017-03-26T00:12:34.540Z,5.3
2017-03-26T00:13:36.889Z,5.3
2017-03-26T00:14:39.744Z,5.3
2017-03-26T00:15:41.952Z,5.3
2017-03-26T00:16:44.796Z,5.3
2017-03-26T00:17:47.895Z,5.3
2017-03-26T00:19:52.644Z,5.3
2017-03-26T00:20:54.986Z,5.3
2017-03-26T00:21:57.831Z,5.2
2017-03-26T00:23:00.472Z,5.2
2017-03-26T00:24:02.817Z,5.2
2017-03-26T00:25:06.222Z,5.2
2017-03-26T00:26:08.060Z,5.2
2017-03-26T00:27:10.902Z,5.2
2017-03-26T00:28:13.502Z,5.2
2017-03-26T00:29:15.713Z,5.1
2017-03-26T00:30:18.423Z,5.1
2017-03-26T00:31:21.275Z,5.1
2017-03-26T00:32:23.486Z,5.1
2017-03-26T00:35:31.644Z,5.1
2017-03-26T00:36:33.984Z,5.1
2017-03-26T00:37:36.826Z,5.1
2017-03-26T00:38:39.169Z,5
2017-03-26T00:39:42.016Z,5
2017-03-26T00:40:44.614Z,5
2017-03-26T00:41:46.957Z,5
2017-03-26T00:42:49.807Z,5
2017-03-26T00:43:52.153Z,5
2017-03-26T00:44:55.004Z,5
2017-03-26T00:45:57.595Z,5
2017-03-26T00:46:59.996Z,5
2017-03-26T00:48:02.344Z,5
2017-03-26T00:49:05.197Z,5
2017-03-26T00:50:07.536Z,5
2017-03-26T00:51:10.635Z,4.9
2017-03-26T00:52:12.975Z,4.9
2017-03-26T00:53:15.321Z,4.9
2017-03-26T00:54:18.170Z,4.9
2017-03-26T00:55:20.880Z,4.8
2017-03-26T00:56:23.467Z,4.8
2017-03-26T00:57:25.810Z,4.8
2017-03-26T00:57:56.447Z,4.8
2017-03-26T00:58:28.600Z,4.8
2017-03-26T00:59:30.942Z,4.8
2017-03-26T01:00:33.792Z,4.8
2017-03-26T01:01:36.798Z,4.8
2017-03-26T01:02:38.643Z,4.8
2017-03-26T01:03:41.492Z,4.8
2017-03-26T01:04:43.832Z,4.8
2017-03-26T01:05:46.677Z,4.7
2017-03-26T01:07:52.187Z,4.7
2017-03-26T01:08:54.527Z,4.7
2017-03-26T01:09:56.736Z,4.7
2017-03-26T01:10:59.585Z,4.6
2017-03-26T01:12:01.928Z,4.7
2017-03-26T01:13:05.080Z,4.7
2017-03-26T01:14:07.292Z,4.6
2017-03-26T01:15:09.637Z,4.6
2017-03-26T01:16:12.490Z,4.6
2017-03-26T01:17:14.831Z,4.6
2017-03-26T01:18:17.931Z,4.6
2017-03-26T01:19:20.279Z,4.6
2017-03-26T01:20:22.621Z,4.6
2017-03-26T01:21:25.466Z,4.6
2017-03-26T01:22:27.808Z,4.5
2017-03-26T01:23:30.910Z,4.5
2017-03-26T01:24:33.262Z,4.5
2017-03-26T01:25:35.682Z,4.5
2017-03-26T01:26:38.023Z,4.5
2017-03-26T01:27:40.869Z,4.5
2017-03-26T01:28:43.522Z,4.5
2017-03-26T01:29:45.659Z,4.5
2017-03-26T01:30:48.371Z,4.5
2017-03-26T01:31:51.218Z,4.5
2017-03-26T01:32:53.575Z,4.5
2017-03-26T01:33:56.734Z,4.4
2017-03-26T01:34:58.568Z,4.4
2017-03-26T01:36:01.424Z,4.4
2017-03-26T01:37:03.634Z,4.4
2017-03-26T01:38:06.484Z,4.4
2017-03-26T01:39:09.594Z,4.4
2017-03-26T01:40:11.940Z,4.4
2017-03-26T01:41:14.327Z,4.3
2017-03-26T01:42:16.674Z,4.3
2017-03-26T01:43:19.523Z,4.3
2017-03-26T01:44:22.119Z,4.3
2017-03-26T01:45:24.326Z,4.3
2017-03-26T01:46:27.169Z,4.3
2017-03-26T01:47:30.012Z,4.3
2017-03-26T01:48:32.223Z,4.3
2017-03-26T01:49:35.323Z,4.3
2017-03-26T01:50:37.664Z,4.3
2017-03-26T01:51:39.869Z,4.3
2017-03-26T01:52:42.714Z,4.3
2017-03-26T01:53:45.070Z,4.3
2017-03-26T01:54:48.176Z,4.3
2017-03-26T01:55:50.524Z,4.2
2017-03-26T01:56:52.867Z,4.2
2017-03-26T01:57:55.718Z,4.3
2017-03-26T01:58:58.061Z,4.3
2017-03-26T02:00:01.166Z,4.3
2017-03-26T02:01:03.520Z,4.3
2017-03-26T02:02:05.927Z,4.2
2017-03-26T02:03:08.270Z,4.2
2017-03-26T02:04:11.115Z,4.2
2017-03-26T02:05:13.711Z,4.2
2017-03-26T02:06:15.916Z,4.2
2017-03-26T02:07:18.633Z,4.1
2017-03-26T02:08:21.489Z,4.1
2017-03-26T02:09:23.846Z,4.1
2017-03-26T02:10:26.318Z,4.1
2017-03-26T02:11:29.160Z,4.1
2017-03-26T02:12:31.506Z,4.1
2017-03-26T02:13:34.359Z,4.1
2017-03-26T02:14:36.708Z,4.1
2017-03-26T02:15:39.808Z,4.1
2017-03-26T02:17:44.560Z,4.1
2017-03-26T02:18:46.920Z,4.1
2017-03-26T02:19:49.768Z,4.1
2017-03-26T02:21:54.774Z,4.1
2017-03-26T02:22:57.123Z,4.1
2017-03-26T02:23:59.971Z,4.1
2017-03-26T02:25:02.316Z,4.1
2017-03-26T02:26:05.163Z,4.1
2017-03-26T02:27:07.765Z,4
2017-03-26T02:28:10.112Z,4
2017-03-26T02:29:12.965Z,4.1
2017-03-26T02:31:17.717Z,4.1
2017-03-26T02:32:20.816Z,4.1
2017-03-26T02:33:23.028Z,4.1
2017-03-26T02:34:25.883Z,4
2017-03-26T02:35:28.792Z,4
2017-03-26T02:36:30.497Z,4
2017-03-26T02:37:33.654Z,4
2017-03-26T02:38:36.003Z,4
2017-03-26T02:39:38.349Z,4
2017-03-26T02:40:41.210Z,4
2017-03-26T02:41:43.553Z,4
2017-03-26T02:43:49.063Z,4
2017-03-26T02:44:51.410Z,4
2017-03-26T02:45:53.758Z,4
2017-03-26T02:46:57.169Z,3.9
2017-03-26T02:47:59.015Z,3.9
2017-03-26T02:49:02.112Z,3.9
2017-03-26T02:50:03.950Z,3.9
2017-03-26T02:51:06.797Z,3.8
2017-03-26T02:53:12.053Z,3.9
2017-03-26T02:54:14.707Z,3.8
2017-03-26T02:55:17.051Z,3.8
2017-03-26T02:56:19.397Z,3.8
2017-03-26T02:57:22.119Z,3.8
2017-03-26T02:58:24.974Z,3.8
2017-03-26T02:59:27.641Z,3.8
2017-03-26T03:00:29.857Z,3.8
2017-03-26T03:01:32.707Z,3.8
2017-03-26T03:02:35.055Z,3.8
2017-03-26T03:03:37.409Z,3.8
2017-03-26T03:04:40.511Z,3.8
2017-03-26T03:05:42.859Z,3.8
2017-03-26T03:06:45.202Z,3.8
2017-03-26T03:07:47.921Z,3.7
2017-03-26T03:08:50.322Z,3.7
2017-03-26T03:09:53.416Z,3.7
2017-03-26T03:10:55.761Z,3.8
2017-03-26T03:11:58.110Z,3.7
2017-03-26T03:13:00.956Z,3.7
2017-03-26T03:14:03.306Z,3.6
2017-03-26T03:15:05.906Z,3.6
2017-03-26T03:16:08.252Z,3.6
2017-03-26T03:17:11.103Z,3.6
2017-03-26T03:18:13.460Z,3.6
2017-03-26T03:19:16.315Z,3.6
2017-03-26T03:20:18.915Z,3.6
2017-03-26T03:22:23.672Z,3.6
2017-03-26T03:23:26.528Z,3.6
2017-03-26T03:24:28.877Z,3.6
2017-03-26T03:25:31.846Z,3.6
2017-03-26T03:26:34.191Z,3.6
2017-03-26T03:27:36.550Z,3.6
2017-03-26T03:28:39.405Z,3.6
2017-03-26T03:29:41.756Z,3.6
2017-03-26T03:30:44.221Z,3.5
2017-03-26T03:31:47.074Z,3.5
2017-03-26T03:32:49.431Z,3.5
2017-03-26T03:33:52.283Z,3.5
2017-03-26T03:34:54.632Z,3.5
2017-03-26T03:35:57.283Z,3.5
2017-03-26T03:36:59.491Z,3.5
2017-03-26T03:38:02.215Z,3.4
2017-03-26T03:39:05.064Z,3.5
2017-03-26T03:40:07.414Z,3.5
2017-03-26T03:41:10.013Z,3.4
2017-03-26T03:42:12.366Z,3.4
2017-03-26T03:43:15.214Z,3.4
2017-03-26T03:44:17.564Z,3.3
2017-03-26T03:45:20.411Z,3.3
2017-03-26T03:46:23.010Z,3.3
2017-03-26T03:47:25.358Z,3.3
2017-03-26T03:48:27.711Z,3.3
2017-03-26T03:49:30.567Z,3.3
2017-03-26T03:50:32.910Z,3.3
2017-03-26T03:51:36.065Z,3.3
2017-03-26T03:53:40.822Z,3.3
2017-03-26T03:54:43.170Z,3.3
2017-03-26T03:55:46.029Z,3.3
2017-03-26T03:56:48.673Z,3.3
2017-03-26T03:57:51.019Z,3.2
2017-03-26T03:58:53.401Z,3.2
2017-03-26T03:59:56.256Z,3.2
2017-03-26T04:00:58.470Z,3.2
2017-03-26T04:02:01.573Z,3.3
2017-03-26T04:03:03.919Z,3.2
2017-03-26T04:04:06.271Z,3.2
2017-03-26T04:05:09.121Z,3.2
2017-03-26T04:06:11.463Z,3.2
2017-03-26T04:07:14.060Z,3.2
2017-03-26T04:09:19.318Z,3.2
2017-03-26T04:10:21.720Z,3.3
2017-03-26T04:11:24.064Z,3.2
2017-03-26T04:12:27.165Z,3.2
2017-03-26T04:14:31.920Z,3.1
2017-03-26T04:15:34.267Z,3.1
2017-03-26T04:16:37.115Z,3.1
2017-03-26T04:17:39.715Z,3.1
2017-03-26T04:19:44.522Z,3.1
2017-03-26T04:20:47.366Z,3.1
2017-03-26T04:21:49.712Z,3.1
2017-03-26T04:22:52.874Z,3.1
2017-03-26T04:23:54.726Z,3.1
2017-03-26T04:24:57.579Z,3.1
2017-03-26T04:25:59.923Z,3.1
2017-03-26T04:27:02.773Z,3.1
2017-03-26T04:28:05.373Z,3.1
2017-03-26T04:29:08.151Z,3.1
2017-03-26T04:30:10.497Z,3.1
2017-03-26T04:31:12.841Z,3.1
2017-03-26T04:32:15.187Z,3.1
2017-03-26T04:33:18.300Z,3.1
2017-03-26T04:34:20.654Z,3.1
2017-03-26T04:35:22.868Z,3.1
2017-03-26T04:36:25.720Z,3.1
2017-03-26T04:37:28.064Z,3.1
2017-03-26T04:38:31.164Z,3.1
2017-03-26T04:39:33.014Z,3.1
2017-03-26T04:40:35.865Z,3
2017-03-26T04:41:38.211Z,3.1
2017-03-26T04:42:41.070Z,3.1
2017-03-26T04:43:43.676Z,3.1
2017-03-26T04:44:45.894Z,3.1
2017-03-26T04:45:48.774Z,3.1
2017-03-26T04:46:51.128Z,3.1
2017-03-26T04:47:53.350Z,3.1
2017-03-26T04:48:56.458Z,3.1
2017-03-26T04:49:58.809Z,3.1
2017-03-26T04:51:01.026Z,3.1
2017-03-26T04:52:03.738Z,3.1
2017-03-26T04:53:06.454Z,3.1
2017-03-26T04:54:09.471Z,3
2017-03-26T04:55:11.321Z,3
2017-03-26T04:56:14.174Z,3
2017-03-26T04:57:16.520Z,3
2017-03-26T04:58:19.374Z,3
2017-03-26T04:59:22.027Z,3
2017-03-26T05:00:24.376Z,3
2017-03-26T05:01:26.725Z,3
2017-03-26T05:02:29.578Z,3
2017-03-26T05:03:31.928Z,3
2017-03-26T05:04:35.037Z,3
2017-03-26T05:05:36.878Z,3
2017-03-26T05:06:39.727Z,3
2017-03-26T05:07:42.072Z,3
2017-03-26T05:08:44.925Z,3
2017-03-26T05:09:47.438Z,3
2017-03-26T05:10:49.788Z,3
2017-03-26T05:12:54.931Z,3
2017-03-26T05:13:57.292Z,3
2017-03-26T05:15:00.399Z,3.1
2017-03-26T05:16:02.747Z,3.1
2017-03-26T05:17:05.236Z,3.1
2017-03-26T05:18:07.586Z,3.1
2017-03-26T05:19:10.447Z,3.1
2017-03-26T05:20:13.043Z,3.1
2017-03-26T05:21:15.393Z,3.1
2017-03-26T05:22:17.842Z,3.1
2017-03-26T05:23:20.696Z,3.2
2017-03-26T05:24:23.046Z,3.1
2017-03-26T05:25:25.651Z,3.2
2017-03-26T05:26:27.997Z,3.1
2017-03-26T05:27:30.849Z,3.2
2017-03-26T05:28:33.199Z,3.2
2017-03-26T05:29:35.415Z,3.2
2017-03-26T05:30:38.522Z,3.3
2017-03-26T05:31:40.867Z,3.3
2017-03-26T05:32:43.213Z,3.3
2017-03-26T05:33:46.127Z,3.2
2017-03-26T05:34:48.343Z,3.3
2017-03-26T05:35:51.441Z,3.3
2017-03-26T05:36:53.785Z,3.3
2017-03-26T05:37:56.135Z,3.3
2017-03-26T05:38:58.992Z,3.3
2017-03-26T05:40:01.353Z,3.4
2017-03-26T05:41:03.953Z,3.4
2017-03-26T05:42:06.165Z,3.3
2017-03-26T05:43:09.015Z,3.4
2017-03-26T05:44:11.365Z,3.5
2017-03-26T05:45:14.215Z,3.5
2017-03-26T05:46:16.814Z,3.6
2017-03-26T05:47:18.886Z,3.6
2017-03-26T05:48:21.735Z,3.7
2017-03-26T05:49:24.087Z,3.8
2017-03-26T05:50:26.937Z,3.9
2017-03-26T05:51:29.540Z,4
2017-03-26T05:52:31.886Z,4.1
2017-03-26T05:53:34.736Z,4.2
2017-03-26T05:54:37.075Z,4.3
2017-03-26T05:56:42.583Z,4.5
2017-03-26T05:57:44.655Z,4.6
2017-03-26T05:58:47.507Z,4.8
2017-03-26T05:59:49.858Z,4.9
2017-03-26T06:01:55.364Z,5.1
2017-03-26T06:02:57.712Z,5.3
2017-03-26T06:04:00.067Z,5.4
2017-03-26T06:05:02.919Z,5.5
2017-03-26T06:06:05.131Z,5.6
2017-03-26T06:07:08.155Z,5.7
2017-03-26T06:08:10.504Z,5.7
2017-03-26T06:09:12.855Z,5.8
2017-03-26T06:11:18.158Z,6
2017-03-26T06:12:20.757Z,6.1
2017-03-26T06:13:23.109Z,6.2
2017-03-26T06:14:25.969Z,6.3
2017-03-26T06:15:28.313Z,6.4
2017-03-26T06:16:31.161Z,6.5
2017-03-26T06:17:33.818Z,6.5
2017-03-26T06:18:36.165Z,6.6
2017-03-26T06:19:39.013Z,6.7
2017-03-26T06:20:41.366Z,6.8
2017-03-26T06:21:44.218Z,6.9
2017-03-26T06:22:46.817Z,7
2017-03-26T06:23:49.169Z,7.1
2017-03-26T06:24:51.520Z,7.1
2017-03-26T06:25:54.371Z,7.1
2017-03-26T06:26:56.714Z,7.2
2017-03-26T06:27:59.870Z,7.3
2017-03-26T06:29:02.080Z,7.3
2017-03-26T06:30:04.798Z,7.4
2017-03-26T06:31:07.147Z,7.4
2017-03-26T06:32:09.993Z,7.5
2017-03-26T06:33:12.594Z,7.3
2017-03-26T06:34:14.941Z,7.5
2017-03-26T06:37:23.100Z,7.9
2017-03-26T06:38:25.756Z,7.8
2017-03-26T06:39:28.099Z,7.9
2017-03-26T06:40:30.815Z,8
2017-03-26T06:41:33.163Z,8.1
2017-03-26T06:42:36.020Z,8
2017-03-26T06:43:38.623Z,8.1
2017-03-26T06:44:40.967Z,8.1
2017-03-26T06:45:43.820Z,8.2
2017-03-26T06:46:46.162Z,8.2
2017-03-26T06:47:49.028Z,8.3
2017-03-26T06:48:52.130Z,8.5
2017-03-26T06:49:54.486Z,8.2
2017-03-26T06:50:56.837Z,8.2
2017-03-26T06:51:59.692Z,8.4
2017-03-26T06:53:02.041Z,8.5
2017-03-26T06:54:05.141Z,8.7
2017-03-26T06:55:07.498Z,8.7
2017-03-26T06:56:09.844Z,8.9
2017-03-26T06:57:12.693Z,8.8
2017-03-26T06:58:15.039Z,9
2017-03-26T06:59:18.147Z,9
2017-03-26T07:00:20.494Z,9
2017-03-26T07:01:23.343Z,9
2017-03-26T07:02:25.551Z,8.7
2017-03-26T07:03:28.398Z,8.8
2017-03-26T07:04:31.234Z,8.7
2017-03-26T07:05:33.581Z,8.7
2017-03-26T07:07:38.838Z,9.2
2017-03-26T07:08:41.554Z,9.5
2017-03-26T07:09:44.021Z,9.6
2017-03-26T07:11:49.276Z,9.8
2017-03-26T07:12:51.862Z,9.6
2017-03-26T07:13:54.716Z,9.7
2017-03-26T07:14:57.737Z,9.8
2017-03-26T07:16:00.082Z,9.6
2017-03-26T07:17:02.428Z,9.6
2017-03-26T07:18:05.286Z,9.8
2017-03-26T07:19:08.144Z,10
2017-03-26T07:20:10.762Z,9.8
2017-03-26T07:21:12.972Z,9.8
2017-03-26T07:22:15.821Z,10
2017-03-26T07:23:18.539Z,10
2017-03-26T07:24:21.816Z,9.9
2017-03-26T07:25:24.100Z,9.7
2017-03-26T07:26:26.440Z,9.5
2017-03-26T07:27:29.286Z,9.5
2017-03-26T07:28:31.634Z,9.7
2017-03-26T07:29:34.480Z,9.6
2017-03-26T07:30:37.130Z,9.7
2017-03-26T07:31:39.474Z,9.8
2017-03-26T07:32:42.322Z,9.8
2017-03-26T07:33:45.215Z,9.6
2017-03-26T07:34:47.564Z,9.6
2017-03-26T07:35:50.712Z,9.8
2017-03-26T07:36:53.057Z,10
2017-03-26T07:37:55.406Z,10.2
2017-03-26T07:38:58.260Z,10.2
2017-03-26T07:40:01.109Z,10.1
2017-03-26T07:41:03.577Z,10
2017-03-26T07:42:06.291Z,10
2017-03-26T07:43:08.638Z,10.1
2017-03-26T07:44:11.356Z,10.3
2017-03-26T07:45:14.205Z,10.5
2017-03-26T07:46:17.306Z,10.5
2017-03-26T07:47:19.652Z,10.5
2017-03-26T07:48:22.006Z,10.5
2017-03-26T07:49:24.857Z,10.4
2017-03-26T07:50:27.068Z,9.9
2017-03-26T07:51:30.036Z,9.7
2017-03-26T07:52:32.884Z,9.8
2017-03-26T07:53:35.238Z,9.9
2017-03-26T07:54:38.090Z,9.7
2017-03-26T07:55:40.938Z,9.8
2017-03-26T07:56:43.531Z,9.8
2017-03-26T07:57:45.880Z,9.9
2017-03-26T07:58:48.730Z,9.9
2017-03-26T07:59:51.577Z,9.8
2017-03-26T08:00:53.921Z,10
2017-03-26T08:01:57.038Z,10.2
2017-03-26T08:02:59.385Z,10.1
2017-03-26T08:04:02.228Z,10.1
2017-03-26T08:05:04.576Z,10.2
2017-03-26T08:06:07.424Z,10.1
2017-03-26T08:07:10.071Z,10.1
2017-03-26T08:08:12.413Z,10
2017-03-26T08:09:15.259Z,10
2017-03-26T08:10:18.117Z,10
2017-03-26T08:12:23.624Z,10
2017-03-26T08:19:42.161Z,9.8
2017-03-26T08:20:44.516Z,9.6
2017-03-26T08:21:47.361Z,9.6
2017-03-26T08:22:49.717Z,9.3
2017-03-26T08:23:52.572Z,9.4
2017-03-26T08:24:55.681Z,9.3
2017-03-26T08:25:58.027Z,9.5
2017-03-26T08:27:00.741Z,9.3
2017-03-26T08:28:03.090Z,9.5
2017-03-26T08:29:05.939Z,9.5
2017-03-26T08:30:08.537Z,9.9
2017-03-26T08:32:13.795Z,10.1
2017-03-26T08:33:16.645Z,10.2
2017-03-26T08:34:18.997Z,10.1
2017-03-26T08:35:22.097Z,10.1
2017-03-26T08:36:24.441Z,10
2017-03-26T08:37:27.297Z,10.1
2017-03-26T08:38:29.642Z,10
2017-03-26T08:39:32.491Z,10
2017-03-26T08:40:35.596Z,9.8
2017-03-26T08:41:37.940Z,9.9
2017-03-26T08:42:40.302Z,9.8
2017-03-26T08:43:43.156Z,9.8
2017-03-26T08:44:46.005Z,9.6
2017-03-26T08:45:48.606Z,9.8
2017-03-26T08:46:50.947Z,10
2017-03-26T08:47:53.665Z,10.1
2017-03-26T08:48:56.514Z,10.1
2017-03-26T08:49:58.866Z,10.1
2017-03-26T08:51:01.967Z,10.2
2017-03-26T08:52:04.179Z,10.2
2017-03-26T08:53:07.034Z,10.1
2017-03-26T08:54:09.615Z,10.2
2017-03-26T08:55:12.333Z,10.2
2017-03-26T08:56:15.439Z,10.3
2017-03-26T08:57:17.786Z,10.3
2017-03-26T08:58:20.137Z,10.1
2017-03-26T08:59:22.856Z,10
2017-03-26T09:00:25.702Z,10
2017-03-26T09:01:28.905Z,9.8
2017-03-26T09:02:31.141Z,9.7
2017-03-26T09:03:33.496Z,9.5
2017-03-26T09:04:36.211Z,9.5
2017-03-26T09:05:39.065Z,9.6
2017-03-26T09:06:42.083Z,9.6
2017-03-26T09:07:44.432Z,9.6
2017-03-26T09:08:46.923Z,9.5
2017-03-26T09:09:49.776Z,9.5
2017-03-26T09:10:52.122Z,9.5
2017-03-26T09:11:55.222Z,9.5
2017-03-26T09:12:57.568Z,9.5
2017-03-26T09:14:00.419Z,9.5
2017-03-26T09:15:02.757Z,9.6
2017-03-26T09:16:05.467Z,9.5
2017-03-26T09:17:08.581Z,9.6
2017-03-26T09:19:13.842Z,9.6
2017-03-26T09:20:16.186Z,9.5
2017-03-26T09:21:18.903Z,9.5
2017-03-26T09:22:22.010Z,9.5
2017-03-26T09:23:24.224Z,9.3
2017-03-26T09:24:27.080Z,9.2
2017-03-26T09:25:29.428Z,9
2017-03-26T09:27:34.939Z,9.1
2017-03-26T09:28:37.807Z,9.1
2017-03-26T09:29:40.151Z,9
2017-03-26T09:30:43.001Z,9
2017-03-26T09:31:45.344Z,9
2017-03-26T09:32:48.450Z,9
2017-03-26T09:33:50.801Z,9
2017-03-26T09:34:53.518Z,9
2017-03-26T09:35:56.380Z,8.9
2017-03-26T09:36:58.733Z,8.9
2017-03-26T09:38:01.904Z,8.9
2017-03-26T09:39:04.265Z,9
2017-03-26T09:40:06.614Z,9
2017-03-26T09:41:09.329Z,9.1
2017-03-26T09:42:12.188Z,9
2017-03-26T09:43:14.837Z,9
2017-03-26T09:44:17.195Z,8.9
2017-03-26T09:45:20.047Z,9
2017-03-26T09:46:22.894Z,8.9
2017-03-26T09:47:25.109Z,8.9
2017-03-26T09:49:30.982Z,9
2017-03-26T09:50:33.336Z,9
2017-03-26T09:51:36.191Z,9
2017-03-26T09:52:38.539Z,9
2017-03-26T09:53:41.965Z,9
2017-03-26T09:54:44.070Z,9
2017-03-26T09:55:46.865Z,9
2017-03-26T09:56:49.219Z,8.9
2017-03-26T09:57:51.938Z,9
2017-03-26T09:58:54.285Z,8.9
2017-03-26T09:59:57.394Z,8.8
2017-03-26T10:00:59.741Z,8.8
2017-03-26T10:02:02.598Z,8.8
2017-03-26T10:03:04.947Z,8.8
2017-03-26T10:05:10.182Z,8.8
2017-03-26T10:06:13.031Z,8.8
2017-03-26T10:09:21.204Z,9
2017-03-26T10:10:23.808Z,8.9
2017-03-26T10:11:26.160Z,8.9
2017-03-26T10:12:29.010Z,9
2017-03-26T10:13:31.868Z,9
2017-03-26T10:14:34.776Z,9
2017-03-26T10:15:37.429Z,9
2017-03-26T10:16:39.783Z,9
2017-03-26T10:17:42.128Z,9
2017-03-26T10:18:44.984Z,9
2017-03-26T10:19:47.338Z,8.9
2017-03-26T10:20:50.440Z,8.9
2017-03-26T10:21:52.788Z,8.8
2017-03-26T10:22:55.648Z,8.8
2017-03-26T10:23:57.998Z,8.8
2017-03-26T10:25:00.841Z,8.8
2017-03-26T10:26:03.441Z,8.8
2017-03-26T10:27:06.024Z,8.8
2017-03-26T10:28:08.874Z,8.8
2017-03-26T10:29:11.226Z,8.9
2017-03-26T10:30:14.076Z,8.9
2017-03-26T10:31:16.677Z,8.9
2017-03-26T10:32:19.527Z,8.9
2017-03-26T10:33:21.882Z,8.8
2017-03-26T10:34:24.732Z,8.9
2017-03-26T10:35:27.083Z,9
2017-03-26T10:36:30.183Z,9
2017-03-26T10:38:35.436Z,9.1
2017-03-26T10:39:37.647Z,9.1
2017-03-26T10:40:40.500Z,9
2017-03-26T10:41:43.601Z,9
2017-03-26T10:42:45.948Z,9
2017-03-26T10:43:48.354Z,9
2017-03-26T10:44:51.207Z,8.9
2017-03-26T10:46:56.637Z,9
2017-03-26T10:47:58.977Z,9.1
2017-03-26T10:49:01.829Z,9.1
2017-03-26T10:50:03.909Z,9.1
2017-03-26T10:51:06.758Z,9.1
2017-03-26T10:52:09.858Z,9.3
2017-03-26T10:53:12.262Z,9.3
2017-03-26T10:54:15.116Z,9.4
2017-03-26T10:55:17.830Z,9.4
2017-03-26T10:56:20.174Z,9.6
2017-03-26T10:57:23.275Z,9.5
2017-03-26T10:58:25.625Z,9.5
2017-03-26T10:59:27.984Z,9.5
2017-03-26T11:00:30.833Z,9.5
2017-03-26T11:01:33.550Z,9.4
2017-03-26T11:02:36.661Z,9.4
2017-03-26T11:03:39.014Z,9.4
2017-03-26T11:04:41.361Z,9.4
2017-03-26T11:05:44.207Z,9.5
2017-03-26T11:06:46.554Z,9.4
2017-03-26T11:07:49.658Z,9.5
2017-03-26T11:08:52.011Z,9.4
2017-03-26T11:09:54.867Z,9.4
2017-03-26T11:10:57.214Z,9.4
2017-03-26T11:12:00.067Z,9.5
2017-03-26T11:13:03.176Z,9.5
2017-03-26T11:14:05.385Z,9.5
2017-03-26T11:15:08.235Z,9.5
2017-03-26T11:16:10.583Z,9.5
2017-03-26T11:17:13.436Z,9.5
2017-03-26T11:18:16.042Z,9.5
2017-03-26T11:19:18.770Z,9.5
2017-03-26T11:20:20.994Z,9.5
2017-03-26T11:21:23.709Z,9.6
2017-03-26T11:22:26.565Z,9.6
2017-03-26T11:23:29.721Z,9.6
2017-03-26T11:24:32.073Z,9.6
2017-03-26T11:25:34.421Z,9.5
2017-03-26T11:26:37.277Z,9.5
2017-03-26T11:27:40.134Z,9.5
2017-03-26T11:28:42.788Z,9.5
2017-03-26T11:29:45.132Z,9.5
2017-03-26T11:30:47.978Z,9.4
2017-03-26T11:31:50.329Z,9.4
2017-03-26T11:32:53.181Z,9.5
2017-03-26T11:33:56.285Z,9.5
2017-03-26T11:34:58.639Z,9.5
2017-03-26T11:36:00.983Z,9.5
2017-03-26T11:37:03.575Z,9.5
2017-03-26T11:38:06.425Z,9.6
2017-03-26T11:39:09.542Z,9.6
2017-03-26T11:40:11.891Z,9.6
2017-03-26T11:42:17.142Z,9.6
2017-03-26T11:43:19.859Z,9.6
2017-03-26T11:44:22.197Z,9.6
2017-03-26T11:45:24.921Z,9.7
2017-03-26T11:46:27.776Z,9.6
2017-03-26T11:47:30.630Z,9.6
2017-03-26T11:48:32.847Z,9.6
2017-03-26T11:49:35.952Z,9.6
2017-03-26T11:50:38.297Z,9.7
2017-03-26T11:51:41.148Z,9.8
2017-03-26T11:52:43.495Z,9.8
2017-03-26T11:53:46.221Z,9.7
2017-03-26T11:54:49.191Z,9.8
2017-03-26T11:55:51.903Z,9.7
2017-03-26T11:56:54.625Z,9.7
2017-03-26T11:57:56.977Z,9.6
2017-03-26T11:58:59.701Z,9.8
2017-03-26T12:00:02.815Z,9.6
2017-03-26T12:01:05.165Z,9.6
2017-03-26T12:02:07.514Z,9.6
2017-03-26T12:03:10.363Z,9.6
2017-03-26T12:05:15.788Z,9.8
2017-03-26T12:06:18.138Z,9.9
2017-03-26T12:07:20.717Z,9.9
2017-03-26T12:08:24.127Z,9.9
2017-03-26T12:09:26.479Z,10
2017-03-26T12:10:29.131Z,10
2017-03-26T12:11:31.476Z,10.1
2017-03-26T12:12:34.380Z,10
2017-03-26T12:13:37.228Z,10
2017-03-26T12:14:39.581Z,10
2017-03-26T12:15:42.738Z,10
2017-03-26T12:16:45.086Z,10.1
2017-03-26T12:17:47.436Z,10.1
2017-03-26T12:18:50.296Z,10.1
2017-03-26T12:19:53.147Z,10
2017-03-26T12:20:55.747Z,10.1
2017-03-26T12:21:58.094Z,10
2017-03-26T12:23:00.814Z,10
2017-03-26T12:24:03.664Z,10
2017-03-26T12:25:06.513Z,10
2017-03-26T12:26:09.121Z,10
2017-03-26T12:28:14.400Z,9.8
2017-03-26T12:29:17.261Z,9.8
2017-03-26T12:30:19.609Z,9.9
2017-03-26T12:31:22.708Z,9.8
2017-03-26T12:32:24.920Z,9.9
2017-03-26T12:33:27.641Z,10.1
2017-03-26T12:34:30.490Z,10.1
2017-03-26T12:35:32.840Z,10.1
2017-03-26T12:36:35.945Z,10
2017-03-26T12:37:38.297Z,9.9
2017-03-26T12:38:41.149Z,9.9
2017-03-26T12:39:43.366Z,9.9
2017-03-26T12:40:46.589Z,9.9
2017-03-26T12:41:49.241Z,10
2017-03-26T12:42:51.467Z,10
2017-03-26T12:43:54.321Z,10
2017-03-26T12:44:57.176Z,10.1
2017-03-26T12:45:59.520Z,10.1
2017-03-26T12:47:02.493Z,10.2
2017-03-26T12:48:04.842Z,10.2
2017-03-26T12:49:07.703Z,10.2
2017-03-26T12:50:10.568Z,10.2
2017-03-26T12:51:12.917Z,10.1
2017-03-26T12:52:16.020Z,10.1
2017-03-26T12:53:18.420Z,10.1
2017-03-26T12:54:21.281Z,10.1
2017-03-26T12:55:23.488Z,10.2
2017-03-26T12:56:26.340Z,10.3
2017-03-26T12:57:29.313Z,10.2
2017-03-26T12:58:31.668Z,10.2
2017-03-26T12:59:34.526Z,10.2
2017-03-26T13:00:36.878Z,10.2
2017-03-26T13:01:39.733Z,10.2
2017-03-26T13:02:42.848Z,10.1
2017-03-26T13:03:45.204Z,10.1
2017-03-26T13:04:47.562Z,10.1
2017-03-26T13:06:53.187Z,10.2
2017-03-26T13:07:56.291Z,10.3
2017-03-26T13:08:58.503Z,10.3
2017-03-26T13:10:01.222Z,10.3
2017-03-26T13:11:04.072Z,10.3
2017-03-26T13:12:06.421Z,10.3
2017-03-26T13:13:09.523Z,10.3
2017-03-26T13:14:11.878Z,10.3
2017-03-26T13:15:14.477Z,10.3
2017-03-26T13:16:17.205Z,10.3
2017-03-26T13:17:20.054Z,10.3
2017-03-26T13:18:22.703Z,10.2
2017-03-26T13:19:24.914Z,10.3
2017-03-26T13:20:27.768Z,10.3
2017-03-26T13:21:30.613Z,10.3
2017-03-26T13:22:33.326Z,10.3
2017-03-26T13:23:35.930Z,10.3
2017-03-26T13:24:38.783Z,10.3
2017-03-26T13:25:41.136Z,10.3
2017-03-26T13:26:43.983Z,10.3
2017-03-26T13:27:46.834Z,10.4
2017-03-26T13:28:49.486Z,10.4
2017-03-26T13:29:51.833Z,10.4
2017-03-26T13:30:54.683Z,10.4
2017-03-26T13:31:57.538Z,10.3
2017-03-26T13:32:59.887Z,10.2
2017-03-26T13:34:02.855Z,10.2
2017-03-26T13:35:05.207Z,10.2
2017-03-26T13:36:08.061Z,10.3
2017-03-26T13:37:10.915Z,10.4
2017-03-26T13:38:13.274Z,10.3
2017-03-26T13:39:16.376Z,10.4
2017-03-26T13:40:18.588Z,10.6
2017-03-26T13:41:21.439Z,10.6
2017-03-26T13:42:24.161Z,10.6
2017-03-26T13:43:26.747Z,10.6
2017-03-26T13:44:29.634Z,10.6
2017-03-26T13:45:31.982Z,10.6
2017-03-26T13:46:34.826Z,10.5
2017-03-26T13:47:37.678Z,10.5
2017-03-26T13:48:40.024Z,10.5
2017-03-26T13:49:43.131Z,10.5
2017-03-26T13:50:45.478Z,10.5
2017-03-26T13:51:48.335Z,10.5
2017-03-26T13:52:50.686Z,10.6
2017-03-26T13:53:53.538Z,10.7
2017-03-26T13:54:56.642Z,10.8
2017-03-26T13:55:58.989Z,10.8
2017-03-26T13:57:01.337Z,10.8
2017-03-26T13:58:04.185Z,10.8
2017-03-26T13:59:07.040Z,10.8
2017-03-26T14:00:09.692Z,10.8
2017-03-26T14:01:12.039Z,10.8
2017-03-26T14:02:14.889Z,10.8
2017-03-26T14:03:17.749Z,10.8
2017-03-26T14:04:19.961Z,10.6
2017-03-26T14:05:23.113Z,10.6
2017-03-26T14:06:25.826Z,10.8
2017-03-26T14:07:28.172Z,10.8
2017-03-26T14:08:30.896Z,10.8
2017-03-26T14:09:33.747Z,10.8
2017-03-26T14:10:36.898Z,10.8
2017-03-26T14:11:39.244Z,10.8
2017-03-26T14:12:41.592Z,10.9
2017-03-26T14:13:44.444Z,10.8
2017-03-26T14:14:47.287Z,10.8
2017-03-26T14:15:49.883Z,10.7
2017-03-26T14:16:52.732Z,10.8
2017-03-26T14:17:54.946Z,10.8
2017-03-26T14:18:57.666Z,10.7
2017-03-26T14:20:00.512Z,10.7
2017-03-26T14:21:03.662Z,10.7
2017-03-26T14:22:05.869Z,10.7
2017-03-26T14:23:08.718Z,10.6
2017-03-26T14:24:11.102Z,10.6
2017-03-26T14:25:13.950Z,10.5
2017-03-26T14:26:17.054Z,10.5
2017-03-26T14:27:19.262Z,10.4
2017-03-26T14:28:21.977Z,10.4
2017-03-26T14:29:24.698Z,10.4
2017-03-26T14:30:27.417Z,10.6
2017-03-26T14:32:32.787Z,10.4
2017-03-26T14:33:35.644Z,10.4
2017-03-26T14:34:37.990Z,10.3
2017-03-26T14:35:40.843Z,10.3
2017-03-26T14:36:43.692Z,10.4
2017-03-26T14:37:46.356Z,10.4
2017-03-26T14:38:48.941Z,10.5
2017-03-26T14:39:51.290Z,10.5
2017-03-26T14:40:54.008Z,10.4
2017-03-26T14:44:02.478Z,10.3
2017-03-26T14:45:04.689Z,10.3
2017-03-26T14:46:07.540Z,10.3
2017-03-26T14:47:10.256Z,10.3
2017-03-26T14:48:12.844Z,10.4
2017-03-26T14:49:15.947Z,10.3
2017-03-26T14:50:18.294Z,10.3
2017-03-26T14:51:21.704Z,10.3
2017-03-26T14:52:23.416Z,10.3
2017-03-26T14:54:29.429Z,10.3
2017-03-26T14:55:31.777Z,10.3
2017-03-26T14:56:34.625Z,10.3
2017-03-26T14:57:36.966Z,10.3
2017-03-26T14:58:39.816Z,10.4
2017-03-26T14:59:42.787Z,10.5
2017-03-26T15:00:45.141Z,10.4
2017-03-26T15:01:47.986Z,10.3
2017-03-26T15:02:50.329Z,10.3
2017-03-26T15:03:53.182Z,10.3
2017-03-26T15:04:56.294Z,10.3
2017-03-26T15:05:58.640Z,10.4
2017-03-26T15:07:00.989Z,10.4
2017-03-26T15:08:03.845Z,10.3
2017-03-26T15:09:06.697Z,10.3
2017-03-26T15:10:09.292Z,10.3
2017-03-26T15:11:11.371Z,10.4